Kemps Landing, Louisiana
Current Conditions -  °F | °C
As of 3:55 AM on Friday 19 Dec 2014 (Local Time) from KHEZ Reporting Station
Overcast Overcast  
Wind Chill: 50°   Ceiling: 400
Heat Index: 50°   Visibility: 4mi
Dew Point: 48°   Wind: 7mph
Humidity: 94%   Direction: 40°NE
Pressure: 30.12"   Gusts: NA
Location:  31.3468°N, 91.6624°W
Report Text: KHEZ 190955Z AUTO 04006KT 4SM OVC004 10/09 A3012 RMK AO1
Loading
Personal Weather Stations






























Interactive Weather Map New forecast layout! Learn more

10-Day Weather Forecast

Advertisements
Track Severe Weather on mobile